createdAt,value
2022-11-02T00:00:29.998Z,66.40
2022-11-02T00:02:57.864Z,66.07
2022-11-02T00:05:27.518Z,65.86
2022-11-02T00:07:56.806Z,65.78
2022-11-02T00:10:25.438Z,65.77
2022-11-02T00:12:53.883Z,65.51
2022-11-02T00:15:21.668Z,65.96
2022-11-02T00:17:54.592Z,66.13
2022-11-02T00:20:22.603Z,65.66
2022-11-02T00:22:56.108Z,65.67
2022-11-02T00:25:25.333Z,65.63
2022-11-02T00:27:53.276Z,65.72
2022-11-02T00:30:21.128Z,65.91
2022-11-02T00:32:48.899Z,66.29
2022-11-02T00:35:16.792Z,66.48
2022-11-02T00:37:44.496Z,66.70
2022-11-02T00:40:14.097Z,66.91
2022-11-02T00:42:41.840Z,66.53
2022-11-02T00:45:10.550Z,66.61
2022-11-02T00:47:38.720Z,66.73
2022-11-02T00:50:07.602Z,66.22
2022-11-02T00:52:35.329Z,66.30
2022-11-02T00:55:03.026Z,66.15
2022-11-02T00:57:32.307Z,65.77
2022-11-02T01:00:00.037Z,65.98
2022-11-02T01:02:27.891Z,65.92
2022-11-02T01:04:55.730Z,65.77
2022-11-02T01:07:23.427Z,65.78
2022-11-02T01:09:51.125Z,65.80
2022-11-02T01:12:18.847Z,65.81
2022-11-02T01:14:48.850Z,66.24
2022-11-02T01:17:17.166Z,66.32
2022-11-02T01:19:44.974Z,66.04
2022-11-02T01:22:12.961Z,65.73
2022-11-02T01:24:40.713Z,65.63
2022-11-02T01:27:08.558Z,65.54
2022-11-02T01:29:36.332Z,65.53
2022-11-02T01:32:05.876Z,65.50
2022-11-02T01:34:33.772Z,65.38
2022-11-02T01:37:01.562Z,65.57
2022-11-02T01:39:29.276Z,65.40
2022-11-02T01:41:57.037Z,65.50
2022-11-02T01:44:30.694Z,65.52
2022-11-02T01:47:02.941Z,65.49
2022-11-02T01:49:34.802Z,65.55
2022-11-02T01:52:08.205Z,65.58
2022-11-02T01:54:41.095Z,65.43
2022-11-02T01:57:11.687Z,65.50
2022-11-02T01:59:44.770Z,65.71
2022-11-02T02:02:16.859Z,65.65
2022-11-02T02:04:49.061Z,65.78
2022-11-02T02:07:17.678Z,66.14
2022-11-02T02:09:48.685Z,66.16
2022-11-02T02:12:19.707Z,66.33
2022-11-02T02:14:47.781Z,66.44
2022-11-02T02:17:27.310Z,66.55
2022-11-02T02:20:01.886Z,66.67
2022-11-02T02:23:05.398Z,66.58
2022-11-02T02:26:16.141Z,66.46
2022-11-02T02:28:51.498Z,66.52
2022-11-02T02:31:25.795Z,66.14
2022-11-02T02:34:02.141Z,66.43
2022-11-02T02:36:33.940Z,66.80
2022-11-02T02:39:06.779Z,66.87
2022-11-02T02:41:40.590Z,66.93
2022-11-02T02:44:14.340Z,67.06
2022-11-02T02:46:46.699Z,66.94
2022-11-02T02:49:19.401Z,67.13
2022-11-02T02:51:48.256Z,67.17
2022-11-02T02:54:20.227Z,67.27
2022-11-02T02:56:52.303Z,67.39
2022-11-02T02:59:25.345Z,67.57
2022-11-02T03:01:55.200Z,67.98
2022-11-02T03:04:23.117Z,67.92
2022-11-02T03:06:53.464Z,68.17
2022-11-02T03:09:28.987Z,68.25
2022-11-02T03:12:06.633Z,68.30
2022-11-02T03:14:44.174Z,68.38
2022-11-02T03:17:17.886Z,68.13
2022-11-02T03:19:56.509Z,67.71
2022-11-02T03:22:33.686Z,67.95
2022-11-02T03:25:10.178Z,67.84
2022-11-02T03:27:47.778Z,67.95
2022-11-02T03:30:20.548Z,67.90
2022-11-02T03:32:53.439Z,67.92
2022-11-02T03:35:26.047Z,67.79
2022-11-02T03:37:59.732Z,67.92
2022-11-02T03:40:30.907Z,67.93
2022-11-02T03:42:59.978Z,68.06
2022-11-02T03:45:36.719Z,68.05
2022-11-02T03:48:08.374Z,68.13
2022-11-02T03:50:39.413Z,68.13
2022-11-02T03:53:10.897Z,67.83
2022-11-02T03:55:43.305Z,67.94
2022-11-02T03:58:11.457Z,67.90
2022-11-02T04:00:48.840Z,67.92
2022-11-02T04:03:18.514Z,68.07
2022-11-02T04:05:46.306Z,67.94
2022-11-02T04:08:24.470Z,67.74
2022-11-02T04:11:11.089Z,67.61
2022-11-02T04:13:56.570Z,67.49
2022-11-02T04:16:28.187Z,67.79
2022-11-02T04:19:13.811Z,67.67
2022-11-02T04:22:01.923Z,67.90
2022-11-02T04:24:47.297Z,67.91
2022-11-02T04:27:19.633Z,67.45
2022-11-02T04:29:48.557Z,67.37
2022-11-02T04:32:37.803Z,67.15
2022-11-02T04:35:05.438Z,66.94
2022-11-02T04:37:50.768Z,66.99
2022-11-02T04:40:18.631Z,66.84
2022-11-02T04:42:48.002Z,67.14
2022-11-02T04:45:15.938Z,67.42
2022-11-02T04:47:45.040Z,67.40
2022-11-02T04:50:13.730Z,67.33
2022-11-02T04:52:41.452Z,67.42
2022-11-02T04:55:09.750Z,67.45
2022-11-02T04:57:37.549Z,67.89
2022-11-02T05:00:07.703Z,68.03
2022-11-02T05:02:35.507Z,68.37
2022-11-02T05:05:06.234Z,68.32
2022-11-02T05:07:33.977Z,68.39
2022-11-02T05:10:01.708Z,68.49
2022-11-02T05:12:29.527Z,68.30
2022-11-02T05:15:05.092Z,68.51
2022-11-02T05:17:32.929Z,68.44
2022-11-02T05:20:00.668Z,68.54
2022-11-02T05:22:29.748Z,68.39
2022-11-02T05:24:57.555Z,68.53
2022-11-02T05:27:25.262Z,68.58
2022-11-02T05:29:53.048Z,68.50
2022-11-02T05:32:20.884Z,68.18
2022-11-02T05:34:48.711Z,68.52
2022-11-02T05:37:16.475Z,68.59
2022-11-02T05:39:47.887Z,68.62
2022-11-02T05:42:18.203Z,68.68
2022-11-02T05:44:45.894Z,68.67
2022-11-02T05:47:13.634Z,68.81
2022-11-02T05:49:41.473Z,68.76
2022-11-02T05:52:09.681Z,68.76
2022-11-02T05:54:37.462Z,68.62
2022-11-02T05:57:06.739Z,68.63
2022-11-02T05:59:34.537Z,68.91
2022-11-02T06:02:02.357Z,68.73
2022-11-02T06:04:30.133Z,68.91
2022-11-02T06:06:57.891Z,68.71
2022-11-02T06:09:25.596Z,68.98
2022-11-02T06:11:53.373Z,68.98
2022-11-02T06:14:22.533Z,69.09
2022-11-02T06:16:50.411Z,69.22
2022-11-02T06:19:18.138Z,68.76
2022-11-02T06:21:48.413Z,69.00
2022-11-02T06:24:16.583Z,68.95
2022-11-02T06:26:44.370Z,68.64
2022-11-02T06:29:12.081Z,68.24
2022-11-02T06:31:41.265Z,68.15
2022-11-02T06:34:09.104Z,67.96
2022-11-02T06:36:37.079Z,67.96
2022-11-02T06:39:05.051Z,67.77
2022-11-02T06:41:32.758Z,67.43
2022-11-02T06:44:00.494Z,67.75
2022-11-02T06:46:28.421Z,67.54
2022-11-02T06:48:58.886Z,67.22
2022-11-02T06:51:26.735Z,67.07
2022-11-02T06:53:54.505Z,67.03
2022-11-02T06:56:22.321Z,67.04
2022-11-02T06:58:50.097Z,66.85
2022-11-02T07:01:18.173Z,66.81
2022-11-02T07:03:46.077Z,66.92
2022-11-02T07:06:15.343Z,66.76
2022-11-02T07:08:43.453Z,66.49
2022-11-02T07:11:15.091Z,66.37
2022-11-02T07:13:43.543Z,66.21
2022-11-02T07:16:11.403Z,65.80
2022-11-02T07:18:39.331Z,66.09
2022-11-02T07:21:07.641Z,66.02
2022-11-02T07:23:36.969Z,65.69
2022-11-02T07:26:05.535Z,65.88
2022-11-02T07:28:33.423Z,65.65
2022-11-02T07:31:01.185Z,65.91
2022-11-02T07:33:28.907Z,65.35
2022-11-02T07:35:56.710Z,65.41
2022-11-02T07:38:24.471Z,65.52
2022-11-02T07:40:53.824Z,65.41
2022-11-02T07:43:21.737Z,65.57
2022-11-02T07:45:49.546Z,65.89
2022-11-02T07:48:17.283Z,66.01
2022-11-02T07:50:45.106Z,65.79
2022-11-02T07:53:12.951Z,65.97
2022-11-02T07:55:41.740Z,66.06
2022-11-02T07:58:14.104Z,65.91
2022-11-02T08:00:42.703Z,65.92
2022-11-02T08:03:12.527Z,65.91
2022-11-02T08:05:42.553Z,65.89
2022-11-02T08:08:13.242Z,65.56
2022-11-02T08:10:41.712Z,65.60
2022-11-02T08:13:12.293Z,65.72
2022-11-02T08:15:40.243Z,65.44
2022-11-02T08:18:09.514Z,65.58
2022-11-02T08:20:37.970Z,65.34
2022-11-02T08:23:07.504Z,65.23
2022-11-02T08:25:36.219Z,65.10
2022-11-02T08:28:04.827Z,65.60
2022-11-02T08:30:34.936Z,65.25
2022-11-02T08:33:05.141Z,65.07
2022-11-02T08:35:33.254Z,65.10
2022-11-02T08:38:01.084Z,65.02
2022-11-02T08:40:29.088Z,64.67
2022-11-02T08:42:58.126Z,64.27
2022-11-02T08:45:25.909Z,64.52
2022-11-02T08:47:55.418Z,64.52
2022-11-02T08:50:23.962Z,64.20
2022-11-02T08:52:52.140Z,64.21
2022-11-02T08:55:20.160Z,64.10
2022-11-02T08:57:48.241Z,64.11
2022-11-02T09:00:16.880Z,64.03
2022-11-02T09:02:45.209Z,64.24
2022-11-02T09:05:14.512Z,64.47
2022-11-02T09:07:42.255Z,64.63
2022-11-02T09:10:10.860Z,64.33
2022-11-02T09:12:38.746Z,64.72
2022-11-02T09:15:07.482Z,64.48
2022-11-02T09:17:35.198Z,64.37
2022-11-02T09:20:03.053Z,64.55
2022-11-02T09:22:32.364Z,64.11
2022-11-02T09:25:00.237Z,63.84
2022-11-02T09:27:28.029Z,63.52
2022-11-02T09:29:56.201Z,63.03
2022-11-02T09:32:24.253Z,62.56
2022-11-02T09:34:52.268Z,62.84
2022-11-02T09:37:20.150Z,62.32
2022-11-02T09:39:49.616Z,61.84
2022-11-02T09:42:23.833Z,61.90
2022-11-02T09:44:58.018Z,61.91
2022-11-02T09:48:10.699Z,62.15
2022-11-02T09:50:22.116Z,62.13
2022-11-02T09:52:54.745Z,61.61
2022-11-02T09:55:30.216Z,60.91
2022-11-02T09:58:04.436Z,60.78
2022-11-02T10:00:36.752Z,60.38
2022-11-02T10:03:19.010Z,60.74
2022-11-02T10:05:52.470Z,60.84
2022-11-02T10:08:28.865Z,60.69
2022-11-02T10:11:12.851Z,59.67
2022-11-02T10:13:45.047Z,58.46
2022-11-02T10:16:18.756Z,58.72
2022-11-02T10:18:49.438Z,58.81
2022-11-02T10:21:21.881Z,58.66
2022-11-02T10:23:51.897Z,58.33
2022-11-02T10:26:24.419Z,58.22
2022-11-02T10:28:58.172Z,58.73
2022-11-02T10:31:30.411Z,59.14
2022-11-02T10:34:01.943Z,59.13
2022-11-02T10:36:45.916Z,57.80
2022-11-02T10:39:27.627Z,57.23
2022-11-02T10:42:08.666Z,56.57
2022-11-02T10:44:56.220Z,55.88
2022-11-02T10:47:26.717Z,55.22
2022-11-02T10:50:25.154Z,54.36
2022-11-02T10:52:52.949Z,53.33
2022-11-02T10:55:27.241Z,53.93
2022-11-02T10:58:00.012Z,53.76
2022-11-02T11:00:33.473Z,54.02
2022-11-02T11:03:10.278Z,53.66
2022-11-02T11:05:57.927Z,53.68
2022-11-02T11:08:37.136Z,54.26
2022-11-02T11:11:13.637Z,54.40
2022-11-02T11:16:35.342Z,53.84
2022-11-02T11:21:52.063Z,53.63
2022-11-02T11:24:26.171Z,53.95
2022-11-02T11:27:05.977Z,53.30
2022-11-02T11:29:39.018Z,53.33
2022-11-02T11:32:15.742Z,53.75
2022-11-02T11:34:46.966Z,53.83
2022-11-02T11:37:17.104Z,53.86
2022-11-02T11:39:52.405Z,53.19
2022-11-02T11:42:24.844Z,53.11
2022-11-02T11:44:59.499Z,52.97
2022-11-02T11:47:30.444Z,52.81
2022-11-02T11:50:09.074Z,52.97
2022-11-02T11:52:44.831Z,52.29
2022-11-02T11:55:23.252Z,52.53
2022-11-02T11:58:07.297Z,52.57
2022-11-02T12:00:37.065Z,52.51
2022-11-02T12:03:07.672Z,52.73
2022-11-02T12:05:46.038Z,52.01
2022-11-02T12:08:35.306Z,51.94
2022-11-02T12:11:26.892Z,51.75
2022-11-02T12:14:09.431Z,51.95
2022-11-02T12:16:55.699Z,52.44
2022-11-02T12:19:33.998Z,51.69
2022-11-02T12:22:12.666Z,51.81
2022-11-02T12:25:05.191Z,51.89
2022-11-02T12:27:43.617Z,51.31
2022-11-02T12:30:15.655Z,51.01
2022-11-02T12:32:57.048Z,51.14
2022-11-02T12:35:49.960Z,51.36
2022-11-02T12:38:37.214Z,51.13
2022-11-02T12:41:08.455Z,51.12
2022-11-02T12:43:45.098Z,51.10
2022-11-02T12:46:38.333Z,51.46
2022-11-02T12:49:25.352Z,51.68
2022-11-02T12:51:59.528Z,51.80
2022-11-02T12:54:41.401Z,51.09
2022-11-02T12:57:13.515Z,50.92
2022-11-02T12:59:44.706Z,50.34
2022-11-02T13:02:17.730Z,50.75
2022-11-02T13:04:52.621Z,51.60
2022-11-02T13:07:27.699Z,52.30
2022-11-02T13:10:02.004Z,52.50
2022-11-02T13:12:33.513Z,52.47
2022-11-02T13:15:03.364Z,52.67
2022-11-02T13:17:41.964Z,52.07
2022-11-02T13:20:19.455Z,51.70
2022-11-02T13:22:52.070Z,51.70
2022-11-02T13:25:24.158Z,51.94
2022-11-02T13:27:55.630Z,52.16
2022-11-02T13:30:23.474Z,52.38
2022-11-02T13:32:55.752Z,52.47
2022-11-02T13:35:31.909Z,52.39
2022-11-02T13:38:06.540Z,51.85
2022-11-02T13:40:42.018Z,51.38
2022-11-02T13:43:36.755Z,51.50
2022-11-02T13:46:28.533Z,51.62
2022-11-02T13:49:02.318Z,51.68
2022-11-02T13:51:38.072Z,52.71
2022-11-02T13:54:13.229Z,53.11
2022-11-02T13:56:42.402Z,53.60
2022-11-02T13:59:19.202Z,54.04
2022-11-02T14:01:47.695Z,54.52
2022-11-02T14:04:16.797Z,54.64
2022-11-02T14:06:50.752Z,54.73
2022-11-02T14:09:31.630Z,55.01
2022-11-02T14:12:26.810Z,54.85
2022-11-02T14:15:38.557Z,54.27
2022-11-02T14:18:13.823Z,54.52
2022-11-02T14:20:43.237Z,54.51
2022-11-02T14:23:37.687Z,54.51
2022-11-02T14:26:05.755Z,54.79
2022-11-02T14:28:43.826Z,54.84
2022-11-02T14:31:37.651Z,55.09
2022-11-02T14:34:22.985Z,55.35
2022-11-02T14:37:07.388Z,55.13
2022-11-02T14:39:48.809Z,55.19
2022-11-02T14:42:31.634Z,55.58
2022-11-02T14:45:22.475Z,55.35
2022-11-02T14:47:57.879Z,55.33
2022-11-02T14:50:26.876Z,55.49
2022-11-02T14:52:59.816Z,55.69
2022-11-02T14:55:30.741Z,55.88
2022-11-02T14:58:05.346Z,55.49
2022-11-02T15:00:39.650Z,55.78
2022-11-02T15:03:29.275Z,55.85
2022-11-02T15:06:03.206Z,55.77
2022-11-02T15:08:34.597Z,55.61
2022-11-02T15:11:44.016Z,55.89
2022-11-02T15:14:48.638Z,56.06
2022-11-02T15:18:02.039Z,56.13
2022-11-02T15:20:34.408Z,56.40
2022-11-02T15:23:31.256Z,56.30
2022-11-02T15:26:01.052Z,55.97
2022-11-02T15:28:35.897Z,55.95
2022-11-02T15:31:08.282Z,56.14
2022-11-02T15:33:40.459Z,55.93
2022-11-02T15:36:15.705Z,56.30
2022-11-02T15:38:49.399Z,56.47
2022-11-02T15:41:26.924Z,56.47
2022-11-02T15:44:16.877Z,56.52
2022-11-02T15:46:56.067Z,56.70
2022-11-02T15:49:41.518Z,56.94
2022-11-02T15:52:20.620Z,56.93
2022-11-02T15:55:02.215Z,56.90
2022-11-02T15:57:41.403Z,56.95
2022-11-02T16:00:18.015Z,57.28
2022-11-02T16:02:48.658Z,57.42
2022-11-02T16:05:20.891Z,57.37
2022-11-02T16:08:09.967Z,57.56
2022-11-02T16:10:38.763Z,57.55
2022-11-02T16:13:16.952Z,57.58
2022-11-02T16:15:48.794Z,57.84
2022-11-02T16:18:25.224Z,57.72
2022-11-02T16:20:54.925Z,57.62
2022-11-02T16:23:25.420Z,57.62
2022-11-02T16:26:00.666Z,58.13
2022-11-02T16:28:30.485Z,57.57
2022-11-02T16:31:17.423Z,57.35
2022-11-02T16:33:48.235Z,57.19
2022-11-02T16:36:18.424Z,56.94
2022-11-02T16:38:55.288Z,56.76
2022-11-02T16:41:23.368Z,56.90
2022-11-02T16:43:52.007Z,56.91
2022-11-02T16:46:30.871Z,56.56
2022-11-02T16:49:08.484Z,56.90
2022-11-02T16:51:36.614Z,56.59
2022-11-02T16:54:27.338Z,56.75
2022-11-02T16:56:56.791Z,57.00
2022-11-02T16:59:25.538Z,56.88
2022-11-02T17:02:00.004Z,57.01
2022-11-02T17:04:30.979Z,56.96
2022-11-02T17:07:10.290Z,56.94
2022-11-02T17:09:38.854Z,56.31
2022-11-02T17:12:11.550Z,56.43
2022-11-02T17:14:42.440Z,56.16
2022-11-02T17:17:38.046Z,56.40
2022-11-02T17:20:18.063Z,56.44
2022-11-02T17:22:54.293Z,57.02
2022-11-02T17:25:23.944Z,57.70
2022-11-02T17:27:52.898Z,57.42
2022-11-02T17:30:42.462Z,56.35
2022-11-02T17:33:21.104Z,56.46
2022-11-02T17:35:50.541Z,56.41
2022-11-02T17:38:19.728Z,56.46
2022-11-02T17:40:52.066Z,57.03
2022-11-02T17:43:19.646Z,57.27
2022-11-02T17:45:54.169Z,57.43
2022-11-02T17:48:24.659Z,58.44
2022-11-02T17:50:54.750Z,58.90
2022-11-02T17:53:23.774Z,58.55
2022-11-02T17:55:52.094Z,58.95
2022-11-02T17:58:19.870Z,59.23
2022-11-02T18:00:47.755Z,58.75
2022-11-02T18:03:19.053Z,58.57
2022-11-02T18:05:53.562Z,58.69
2022-11-02T18:08:52.249Z,58.69
2022-11-02T18:11:25.839Z,58.46
2022-11-02T18:13:54.217Z,59.22
2022-11-02T18:16:22.165Z,59.25
2022-11-02T18:18:49.996Z,57.92
2022-11-02T18:21:19.424Z,57.69
2022-11-02T18:23:47.318Z,58.66
2022-11-02T18:26:15.209Z,58.02
2022-11-02T18:28:42.993Z,57.79
2022-11-02T18:31:10.884Z,58.24
2022-11-02T18:33:38.745Z,58.24
2022-11-02T18:36:07.652Z,58.68
2022-11-02T18:38:37.114Z,57.46
2022-11-02T18:41:26.183Z,56.78
2022-11-02T18:43:56.888Z,57.89
2022-11-02T18:46:30.735Z,60.98
2022-11-02T18:48:59.593Z,57.29
2022-11-02T18:51:27.771Z,56.88
2022-11-02T18:53:58.847Z,58.28
2022-11-02T18:56:26.935Z,57.46
2022-11-02T18:58:56.197Z,57.10
2022-11-02T19:01:26.049Z,57.37
2022-11-02T19:03:55.587Z,57.51
2022-11-02T19:06:38.330Z,59.17
2022-11-02T19:09:20.791Z,57.04
2022-11-02T19:11:53.393Z,57.38
2022-11-02T19:14:23.478Z,57.54
2022-11-02T19:16:51.473Z,57.27
2022-11-02T19:19:19.353Z,57.59
2022-11-02T19:21:47.354Z,60.96
2022-11-02T19:24:16.566Z,58.40
2022-11-02T19:26:44.354Z,58.34
2022-11-02T19:29:12.103Z,60.91
2022-11-02T19:31:40.052Z,58.40
2022-11-02T19:34:07.828Z,58.56
2022-11-02T19:36:36.940Z,58.63
2022-11-02T19:39:07.108Z,58.38
2022-11-02T19:41:37.514Z,58.12
2022-11-02T19:44:05.805Z,57.97
2022-11-02T19:46:34.007Z,62.64
2022-11-02T19:49:02.227Z,58.42
2022-11-02T19:51:31.535Z,57.69
2022-11-02T19:54:04.002Z,57.97
2022-11-02T19:56:32.746Z,56.85
2022-11-02T19:59:02.815Z,57.63
2022-11-02T20:01:32.223Z,58.64
2022-11-02T20:04:00.905Z,59.08
2022-11-02T20:06:32.168Z,57.99
2022-11-02T20:09:01.666Z,58.31
2022-11-02T20:11:29.894Z,58.72
2022-11-02T20:13:58.529Z,58.62
2022-11-02T20:16:28.524Z,58.62
2022-11-02T20:18:56.974Z,58.27
2022-11-02T20:21:31.547Z,59.50
2022-11-02T20:24:02.253Z,58.18
2022-11-02T20:26:31.320Z,58.88
2022-11-02T20:29:00.744Z,59.92
2022-11-02T20:31:32.396Z,59.22
2022-11-02T20:34:00.842Z,58.65
2022-11-02T20:36:28.751Z,59.97
2022-11-02T20:38:56.710Z,59.28
2022-11-02T20:41:26.172Z,60.97
2022-11-02T20:43:55.436Z,58.79
2022-11-02T20:46:42.296Z,58.92
2022-11-02T20:49:22.263Z,61.10
2022-11-02T20:52:00.392Z,60.50
2022-11-02T20:54:29.848Z,60.30
2022-11-02T20:56:58.007Z,59.41
2022-11-02T20:59:26.187Z,59.37
2022-11-02T21:01:55.343Z,60.97
2022-11-02T21:04:24.682Z,60.70
2022-11-02T21:06:52.609Z,60.43
2022-11-02T21:09:20.631Z,60.13
2022-11-02T21:12:05.914Z,60.73
2022-11-02T21:14:33.705Z,60.82
2022-11-02T21:17:02.679Z,61.36
2022-11-02T21:19:31.949Z,60.94
2022-11-02T21:22:00.533Z,63.53
2022-11-02T21:24:28.820Z,61.07
2022-11-02T21:26:56.622Z,60.39
2022-11-02T21:29:24.495Z,61.20
2022-11-02T21:31:52.267Z,61.32
2022-11-02T21:34:20.161Z,61.19
2022-11-02T21:36:50.058Z,62.51
2022-11-02T21:39:18.125Z,63.83
2022-11-02T21:41:46.005Z,61.52
2022-11-02T21:44:13.748Z,66.24
2022-11-02T21:46:41.600Z,63.38
2022-11-02T21:49:09.589Z,61.89
2022-11-02T21:51:38.636Z,63.20
2022-11-02T21:54:08.214Z,61.87
2022-11-02T21:56:37.107Z,62.13
2022-11-02T21:59:05.948Z,63.38
2022-11-02T22:01:48.631Z,61.02
2022-11-02T22:04:19.648Z,61.01
2022-11-02T22:06:47.634Z,60.90
2022-11-02T22:09:17.261Z,61.22
2022-11-02T22:11:45.563Z,61.34
2022-11-02T22:14:13.195Z,61.48
2022-11-02T22:16:43.017Z,61.65
2022-11-02T22:19:12.605Z,61.54
2022-11-02T22:21:42.190Z,61.53
2022-11-02T22:24:11.264Z,61.65
2022-11-02T22:26:41.680Z,61.61
2022-11-02T22:29:09.820Z,61.78
2022-11-02T22:31:39.590Z,62.00
2022-11-02T22:34:09.127Z,61.79
2022-11-02T22:36:38.437Z,61.94
2022-11-02T22:39:07.004Z,61.97
2022-11-02T22:41:37.252Z,62.18
2022-11-02T22:44:07.969Z,62.09
2022-11-02T22:46:37.798Z,62.01
2022-11-02T22:49:06.248Z,62.07
2022-11-02T22:51:36.181Z,62.15
2022-11-02T22:54:06.097Z,62.47
2022-11-02T22:56:35.084Z,62.28
2022-11-02T22:59:03.319Z,62.54
2022-11-02T23:01:34.039Z,62.74
2022-11-02T23:04:02.266Z,62.66
2022-11-02T23:06:30.369Z,62.46
2022-11-02T23:08:59.641Z,62.56
2022-11-02T23:11:29.102Z,62.78
2022-11-02T23:13:58.341Z,62.71
2022-11-02T23:16:27.924Z,62.72
2022-11-02T23:19:20.322Z,62.87
2022-11-02T23:22:09.852Z,62.94
2022-11-02T23:24:54.982Z,62.80
2022-11-02T23:27:22.733Z,62.59
2022-11-02T23:30:08.096Z,62.69
2022-11-02T23:32:35.950Z,62.88
2022-11-02T23:35:23.679Z,62.86
2022-11-02T23:37:51.612Z,63.00
2022-11-02T23:40:20.060Z,62.84
2022-11-02T23:42:47.891Z,62.80
2022-11-02T23:45:15.678Z,63.16
2022-11-02T23:48:00.354Z,62.85
2022-11-02T23:50:49.816Z,62.80
2022-11-02T23:53:37.221Z,62.57
2022-11-02T23:56:23.678Z,62.91
2022-11-02T23:59:06.503Z,63.01
